createdAt,value
2018-12-02T00:00:12.377Z,10.87
2018-12-02T00:01:12.346Z,10.90
2018-12-02T00:02:12.309Z,10.90
2018-12-02T00:03:12.273Z,10.86
2018-12-02T00:04:12.250Z,10.87
2018-12-02T00:05:12.205Z,10.81
2018-12-02T00:06:12.188Z,10.86
2018-12-02T00:07:12.142Z,10.84
2018-12-02T00:08:12.099Z,10.84
2018-12-02T00:09:12.061Z,10.86
2018-12-02T00:10:12.033Z,10.86
2018-12-02T00:11:12.000Z,10.82
2018-12-02T00:12:11.965Z,10.92
2018-12-02T00:13:11.929Z,10.94
2018-12-02T00:14:11.897Z,10.97
2018-12-02T00:15:11.869Z,11.02
2018-12-02T00:16:12.580Z,10.97
2018-12-02T00:17:12.582Z,11.00
2018-12-02T00:18:11.768Z,10.94
2018-12-02T00:19:11.724Z,10.97
2018-12-02T00:20:11.693Z,10.99
2018-12-02T00:21:11.655Z,11.00
2018-12-02T00:22:11.621Z,10.90
2018-12-02T00:23:11.585Z,10.92
2018-12-02T00:24:11.552Z,10.92
2018-12-02T00:25:11.518Z,10.89
2018-12-02T00:26:11.485Z,11.00
2018-12-02T00:27:11.917Z,11.02
2018-12-02T00:28:11.421Z,10.96
2018-12-02T00:29:11.383Z,10.96
2018-12-02T00:30:11.340Z,10.93
2018-12-02T00:31:11.310Z,10.94
2018-12-02T00:32:11.275Z,11.00
2018-12-02T00:33:11.263Z,10.89
2018-12-02T00:34:11.211Z,10.89
2018-12-02T00:35:11.171Z,10.86
2018-12-02T00:36:11.149Z,10.86
2018-12-02T00:37:11.104Z,10.84
2018-12-02T00:38:11.092Z,10.92
2018-12-02T00:39:11.067Z,10.92
2018-12-02T00:40:11.000Z,10.84
2018-12-02T00:41:10.970Z,10.94
2018-12-02T00:42:11.343Z,10.93
2018-12-02T00:43:10.898Z,10.93
2018-12-02T00:44:10.908Z,10.90
2018-12-02T00:45:10.821Z,10.89
2018-12-02T00:46:10.792Z,10.92
2018-12-02T00:47:10.762Z,10.97
2018-12-02T00:48:10.724Z,10.96
2018-12-02T00:49:10.682Z,10.94
2018-12-02T00:50:10.656Z,10.99
2018-12-02T00:51:10.624Z,10.99
2018-12-02T00:52:10.584Z,11.08
2018-12-02T00:53:10.556Z,11.02
2018-12-02T00:54:10.519Z,11.10
2018-12-02T00:55:10.483Z,11.12
2018-12-02T00:56:10.449Z,11.11
2018-12-02T00:57:10.411Z,11.12
2018-12-02T00:58:10.386Z,11.12
2018-12-02T00:59:10.348Z,11.12
2018-12-02T01:00:10.315Z,11.05
2018-12-02T01:01:10.276Z,11.14
2018-12-02T01:02:10.241Z,11.12
2018-12-02T01:03:10.207Z,11.08
2018-12-02T01:04:10.175Z,11.02
2018-12-02T01:05:10.143Z,11.12
2018-12-02T01:06:10.105Z,11.10
2018-12-02T01:07:10.068Z,11.08
2018-12-02T01:08:10.033Z,11.05
2018-12-02T01:09:09.995Z,11.04
2018-12-02T01:10:09.970Z,11.10
2018-12-02T01:11:10.532Z,11.00
2018-12-02T01:12:09.896Z,10.99
2018-12-02T01:13:09.865Z,11.04
2018-12-02T01:14:09.831Z,10.99
2018-12-02T01:15:09.804Z,10.97
2018-12-02T01:16:09.765Z,10.97
2018-12-02T01:17:09.828Z,10.93
2018-12-02T01:18:09.695Z,10.93
2018-12-02T01:19:09.654Z,10.94
2018-12-02T01:20:09.623Z,10.99
2018-12-02T01:21:09.587Z,10.97
2018-12-02T01:22:09.548Z,10.96
2018-12-02T01:23:09.516Z,10.90
2018-12-02T01:24:09.481Z,10.93
2018-12-02T01:25:09.455Z,10.90
2018-12-02T01:26:09.415Z,10.92
2018-12-02T01:27:09.382Z,10.89
2018-12-02T01:28:09.348Z,10.94
2018-12-02T01:29:09.331Z,10.90
2018-12-02T01:30:09.269Z,10.89
2018-12-02T01:31:09.244Z,10.87
2018-12-02T01:32:09.208Z,10.86
2018-12-02T01:33:09.173Z,10.87
2018-12-02T01:34:09.144Z,10.93
2018-12-02T01:35:09.106Z,10.82
2018-12-02T01:36:09.071Z,10.84
2018-12-02T01:37:09.039Z,10.86
2018-12-02T01:38:09.014Z,10.81
2018-12-02T01:39:08.969Z,10.72
2018-12-02T01:40:08.936Z,10.72
2018-12-02T01:41:08.898Z,10.78
2018-12-02T01:42:08.915Z,10.64
2018-12-02T01:43:08.829Z,10.63
2018-12-02T01:44:08.794Z,10.63
2018-12-02T01:45:08.767Z,10.59
2018-12-02T01:46:08.725Z,10.49
2018-12-02T01:47:08.694Z,10.51
2018-12-02T01:48:08.657Z,10.54
2018-12-02T01:49:08.633Z,10.54
2018-12-02T01:50:08.587Z,10.42
2018-12-02T01:51:08.553Z,10.48
2018-12-02T01:52:08.520Z,10.42
2018-12-02T01:53:08.483Z,10.33
2018-12-02T01:54:08.450Z,10.35
2018-12-02T01:55:08.416Z,10.38
2018-12-02T01:56:08.379Z,10.35
2018-12-02T01:57:08.342Z,10.37
2018-12-02T01:58:08.323Z,10.42
2018-12-02T01:59:08.275Z,10.42
2018-12-02T02:00:08.240Z,10.44
2018-12-02T02:01:08.308Z,10.38
2018-12-02T02:02:08.176Z,10.38
2018-12-02T02:03:08.136Z,10.46
2018-12-02T02:04:08.099Z,10.40
2018-12-02T02:05:08.066Z,10.48
2018-12-02T02:06:08.044Z,10.53
2018-12-02T02:07:07.995Z,10.56
2018-12-02T02:08:07.964Z,10.51
2018-12-02T02:09:07.926Z,10.48
2018-12-02T02:10:07.896Z,10.53
2018-12-02T02:11:07.857Z,10.49
2018-12-02T02:12:07.820Z,10.49
2018-12-02T02:13:07.784Z,10.61
2018-12-02T02:14:08.028Z,10.61
2018-12-02T02:15:07.763Z,10.72
2018-12-02T02:16:07.684Z,10.67
2018-12-02T02:17:07.646Z,10.68
2018-12-02T02:18:07.612Z,10.74
2018-12-02T02:19:07.578Z,10.68
2018-12-02T02:20:07.539Z,10.69
2018-12-02T02:21:07.508Z,10.68
2018-12-02T02:22:07.474Z,10.63
2018-12-02T02:23:07.442Z,10.63
2018-12-02T02:24:07.403Z,10.53
2018-12-02T02:25:07.369Z,10.51
2018-12-02T02:26:07.338Z,10.37
2018-12-02T02:27:07.302Z,10.33
2018-12-02T02:28:07.430Z,10.22
2018-12-02T02:29:07.228Z,10.13
2018-12-02T02:30:07.197Z,10.12
2018-12-02T02:31:07.186Z,10.02
2018-12-02T02:32:07.119Z,9.95
2018-12-02T02:33:07.094Z,9.97
2018-12-02T02:34:07.054Z,9.95
2018-12-02T02:35:07.022Z,9.84
2018-12-02T02:36:06.986Z,9.86
2018-12-02T02:37:06.945Z,9.83
2018-12-02T02:38:06.913Z,9.89
2018-12-02T02:39:06.880Z,9.79
2018-12-02T02:40:06.844Z,9.76
2018-12-02T02:41:06.809Z,9.76
2018-12-02T02:42:06.786Z,9.73
2018-12-02T02:43:06.736Z,9.73
2018-12-02T02:44:06.701Z,9.74
2018-12-02T02:45:06.664Z,9.74
2018-12-02T02:46:06.631Z,9.66
2018-12-02T02:47:06.599Z,9.59
2018-12-02T02:48:06.559Z,9.68
2018-12-02T02:49:06.521Z,9.64
2018-12-02T02:50:06.488Z,9.56
2018-12-02T02:51:06.455Z,9.56
2018-12-02T02:52:06.418Z,9.59
2018-12-02T02:53:06.383Z,9.62
2018-12-02T02:54:06.363Z,9.59
2018-12-02T02:55:06.317Z,9.69
2018-12-02T02:56:06.281Z,9.61
2018-12-02T02:57:06.239Z,9.58
2018-12-02T02:58:06.217Z,9.59
2018-12-02T02:59:06.167Z,9.62
2018-12-02T03:00:06.133Z,9.58
2018-12-02T03:01:06.105Z,9.58
2018-12-02T03:02:06.059Z,9.48
2018-12-02T03:03:06.043Z,9.58
2018-12-02T03:04:05.990Z,9.58
2018-12-02T03:05:05.953Z,9.54
2018-12-02T03:06:05.929Z,9.58
2018-12-02T03:07:05.883Z,9.61
2018-12-02T03:08:05.845Z,9.47
2018-12-02T03:09:05.810Z,9.56
2018-12-02T03:10:05.786Z,9.55
2018-12-02T03:11:05.764Z,9.55
2018-12-02T03:12:05.697Z,9.59
2018-12-02T03:13:05.668Z,9.51
2018-12-02T03:14:05.632Z,9.58
2018-12-02T03:15:05.594Z,9.48
2018-12-02T03:16:05.560Z,9.54
2018-12-02T03:17:05.524Z,9.58
2018-12-02T03:18:05.488Z,9.46
2018-12-02T03:19:05.454Z,9.47
2018-12-02T03:20:05.414Z,9.47
2018-12-02T03:21:05.380Z,9.44
2018-12-02T03:22:05.343Z,9.46
2018-12-02T03:23:05.310Z,9.44
2018-12-02T03:24:05.276Z,9.47
2018-12-02T03:25:05.237Z,9.48
2018-12-02T03:26:05.206Z,9.48
2018-12-02T03:27:05.164Z,9.46
2018-12-02T03:28:05.133Z,9.48
2018-12-02T03:29:05.098Z,9.44
2018-12-02T03:30:05.059Z,9.46
2018-12-02T03:31:05.027Z,9.47
2018-12-02T03:32:04.992Z,9.47
2018-12-02T03:33:04.957Z,9.43
2018-12-02T03:34:04.917Z,9.47
2018-12-02T03:35:04.879Z,9.41
2018-12-02T03:36:04.841Z,9.43
2018-12-02T03:37:04.807Z,9.43
2018-12-02T03:38:04.788Z,9.46
2018-12-02T03:39:04.738Z,9.41
2018-12-02T03:40:04.701Z,9.46
2018-12-02T03:41:04.663Z,9.46
2018-12-02T03:42:04.628Z,9.44
2018-12-02T03:43:04.933Z,9.40
2018-12-02T03:44:04.571Z,9.48
2018-12-02T03:45:04.521Z,9.40
2018-12-02T03:46:04.487Z,9.44
2018-12-02T03:47:04.450Z,9.46
2018-12-02T03:48:04.415Z,9.44
2018-12-02T03:49:04.377Z,9.41
2018-12-02T03:50:04.369Z,9.46
2018-12-02T03:51:04.307Z,9.43
2018-12-02T03:52:04.273Z,9.46
2018-12-02T03:53:05.100Z,9.43
2018-12-02T03:54:04.200Z,9.47
2018-12-02T03:55:04.162Z,9.44
2018-12-02T03:56:04.128Z,9.46
2018-12-02T03:57:04.093Z,9.41
2018-12-02T03:58:04.056Z,9.46
2018-12-02T03:59:04.020Z,9.41
2018-12-02T04:00:03.982Z,9.46
2018-12-02T04:01:03.946Z,9.41
2018-12-02T04:02:03.909Z,9.40
2018-12-02T04:03:03.898Z,9.43
2018-12-02T04:04:03.855Z,9.43
2018-12-02T04:05:03.824Z,9.37
2018-12-02T04:06:03.769Z,9.44
2018-12-02T04:07:03.738Z,9.41
2018-12-02T04:08:03.696Z,9.36
2018-12-02T04:09:03.667Z,9.47
2018-12-02T04:10:03.625Z,9.44
2018-12-02T04:11:03.590Z,9.39
2018-12-02T04:12:03.551Z,9.31
2018-12-02T04:13:03.521Z,9.36
2018-12-02T04:14:03.483Z,9.40
2018-12-02T04:15:03.444Z,9.32
2018-12-02T04:16:03.412Z,9.41
2018-12-02T04:17:03.382Z,9.46
2018-12-02T04:18:03.350Z,9.43
2018-12-02T04:19:03.304Z,9.40
2018-12-02T04:20:03.319Z,9.50
2018-12-02T04:21:03.241Z,9.40
2018-12-02T04:22:03.304Z,9.40
2018-12-02T04:23:03.164Z,9.46
2018-12-02T04:24:03.127Z,9.46
2018-12-02T04:25:03.110Z,9.43
2018-12-02T04:26:03.049Z,9.44
2018-12-02T04:27:03.016Z,9.41
2018-12-02T04:28:02.997Z,9.47
2018-12-02T04:29:02.946Z,9.46
2018-12-02T04:30:02.909Z,9.44
2018-12-02T04:31:02.892Z,9.46
2018-12-02T04:32:02.837Z,9.50
2018-12-02T04:33:02.803Z,9.47
2018-12-02T04:34:02.770Z,9.43
2018-12-02T04:35:02.733Z,9.47
2018-12-02T04:36:02.694Z,9.46
2018-12-02T04:37:02.661Z,9.44
2018-12-02T04:38:02.624Z,9.48
2018-12-02T04:39:02.589Z,9.44
2018-12-02T04:40:02.555Z,9.46
2018-12-02T04:41:02.517Z,9.46
2018-12-02T04:42:02.506Z,9.48
2018-12-02T04:43:02.457Z,9.44
2018-12-02T04:44:02.408Z,9.44
2018-12-02T04:45:02.376Z,9.41
2018-12-02T04:46:02.336Z,9.41
2018-12-02T04:47:02.305Z,9.44
2018-12-02T04:48:02.404Z,9.51
2018-12-02T04:49:02.276Z,9.44
2018-12-02T04:50:02.198Z,9.43
2018-12-02T04:51:02.409Z,9.44
2018-12-02T04:52:02.133Z,9.58
2018-12-02T04:53:02.079Z,9.62
2018-12-02T04:54:02.086Z,9.47
2018-12-02T04:55:02.047Z,9.62
2018-12-02T04:56:01.985Z,9.56
2018-12-02T04:57:01.952Z,9.58
2018-12-02T04:58:01.909Z,9.58
2018-12-02T04:59:01.875Z,9.68
2018-12-02T05:00:01.835Z,9.59
2018-12-02T05:01:01.815Z,9.66
2018-12-02T05:02:01.771Z,9.72
2018-12-02T05:03:01.734Z,9.68
2018-12-02T05:04:01.696Z,9.66
2018-12-02T05:05:01.703Z,9.72
2018-12-02T05:06:01.624Z,9.68
2018-12-02T05:07:01.586Z,9.64
2018-12-02T05:08:01.571Z,9.66
2018-12-02T05:09:02.185Z,9.66
2018-12-02T05:10:01.480Z,9.64
2018-12-02T05:11:01.455Z,9.68
2018-12-02T05:12:01.411Z,9.68
2018-12-02T05:13:01.403Z,9.68
2018-12-02T05:14:01.337Z,9.69
2018-12-02T05:15:01.309Z,9.66
2018-12-02T05:16:01.283Z,9.62
2018-12-02T05:17:01.326Z,9.72
2018-12-02T05:18:01.207Z,9.66
2018-12-02T05:19:01.156Z,9.66
2018-12-02T05:20:01.138Z,9.64
2018-12-02T05:21:01.124Z,9.66
2018-12-02T05:22:01.072Z,9.64
2018-12-02T05:23:01.027Z,9.68
2018-12-02T05:24:00.998Z,9.68
2018-12-02T05:25:00.946Z,9.68
2018-12-02T05:26:00.913Z,9.65
2018-12-02T05:27:00.877Z,9.66
2018-12-02T05:28:00.843Z,9.66
2018-12-02T05:29:00.805Z,9.69
2018-12-02T05:30:00.781Z,9.72
2018-12-02T05:31:00.856Z,9.66
2018-12-02T05:32:00.697Z,9.68
2018-12-02T05:33:00.679Z,9.68
2018-12-02T05:34:00.625Z,9.66
2018-12-02T05:35:00.585Z,9.69
2018-12-02T05:36:00.554Z,9.65
2018-12-02T05:37:01.158Z,9.68
2018-12-02T05:38:00.480Z,9.72
2018-12-02T05:39:00.463Z,9.69
2018-12-02T05:40:00.429Z,9.66
2018-12-02T05:41:00.395Z,9.62
2018-12-02T05:42:00.399Z,9.66
2018-12-02T05:43:00.325Z,9.65
2018-12-02T05:44:00.283Z,9.64
2018-12-02T05:45:00.238Z,9.68
2018-12-02T05:46:00.199Z,9.69
2018-12-02T05:47:00.183Z,9.65
2018-12-02T05:48:00.560Z,9.61
2018-12-02T05:49:00.118Z,9.59
2018-12-02T05:50:00.054Z,9.66
2018-12-02T05:51:00.044Z,9.68
2018-12-02T05:51:59.985Z,9.68
2018-12-02T05:52:59.942Z,9.72
2018-12-02T05:53:59.905Z,9.68
2018-12-02T05:54:59.896Z,9.69
2018-12-02T05:55:59.839Z,9.68
2018-12-02T05:56:59.806Z,9.72
2018-12-02T05:57:59.772Z,9.69
2018-12-02T05:58:59.732Z,9.68
2018-12-02T05:59:59.698Z,9.65
2018-12-02T06:00:59.669Z,9.72
2018-12-02T06:01:59.628Z,9.65
2018-12-02T06:02:59.593Z,9.76
2018-12-02T06:03:59.608Z,9.74
2018-12-02T06:04:59.542Z,9.73
2018-12-02T06:05:59.487Z,9.91
2018-12-02T06:06:59.470Z,9.86
2018-12-02T06:07:59.417Z,9.89
2018-12-02T06:08:59.373Z,9.95
2018-12-02T06:09:59.342Z,9.95
2018-12-02T06:10:59.318Z,9.98
2018-12-02T06:11:59.280Z,9.97
2018-12-02T06:12:59.231Z,9.92
2018-12-02T06:13:59.261Z,9.94
2018-12-02T06:14:59.188Z,10.05
2018-12-02T06:15:59.168Z,10.01
2018-12-02T06:16:59.108Z,10.07
2018-12-02T06:17:59.467Z,10.10
2018-12-02T06:18:59.030Z,10.12
2018-12-02T06:20:04.554Z,10.23
2018-12-02T06:20:58.977Z,10.13
2018-12-02T06:21:58.918Z,10.16
2018-12-02T06:22:58.907Z,10.19
2018-12-02T06:23:58.871Z,10.22
2018-12-02T06:24:58.831Z,10.19
2018-12-02T06:25:58.776Z,10.22
2018-12-02T06:26:58.743Z,10.33
2018-12-02T06:27:58.706Z,10.25
2018-12-02T06:28:58.674Z,10.34
2018-12-02T06:29:58.635Z,10.31
2018-12-02T06:30:58.623Z,10.34
2018-12-02T06:31:58.570Z,10.28
2018-12-02T06:32:58.533Z,10.23
2018-12-02T06:33:58.500Z,10.35
2018-12-02T06:34:58.482Z,10.33
2018-12-02T06:35:58.425Z,10.33
2018-12-02T06:36:58.386Z,10.34
2018-12-02T06:37:58.357Z,10.34
2018-12-02T06:38:58.341Z,10.40
2018-12-02T06:39:58.991Z,10.30
2018-12-02T06:40:58.263Z,10.33
2018-12-02T06:41:58.215Z,10.38
2018-12-02T06:42:58.184Z,10.34
2018-12-02T06:43:58.149Z,10.41
2018-12-02T06:44:58.110Z,10.34
2018-12-02T06:45:58.081Z,10.42
2018-12-02T06:46:58.043Z,10.35
2018-12-02T06:47:58.068Z,10.35
2018-12-02T06:48:57.983Z,10.35
2018-12-02T06:49:57.978Z,10.42
2018-12-02T06:50:57.909Z,10.44
2018-12-02T06:51:57.861Z,10.40
2018-12-02T06:52:57.833Z,10.37
2018-12-02T06:53:57.863Z,10.34
2018-12-02T06:54:57.771Z,10.35
2018-12-02T06:55:57.727Z,10.37
2018-12-02T06:56:57.683Z,10.35
2018-12-02T06:57:57.667Z,10.40
2018-12-02T06:58:57.625Z,10.37
2018-12-02T06:59:57.589Z,10.46
2018-12-02T07:00:57.597Z,10.49
2018-12-02T07:01:57.520Z,10.42
2018-12-02T07:02:57.473Z,10.41
2018-12-02T07:03:57.469Z,10.53
2018-12-02T07:04:57.418Z,10.35
2018-12-02T07:05:57.378Z,10.42
2018-12-02T07:06:57.360Z,10.42
2018-12-02T07:07:57.303Z,10.53
2018-12-02T07:08:57.270Z,10.46
2018-12-02T07:09:57.255Z,10.51
2018-12-02T07:10:57.200Z,10.53
2018-12-02T07:11:57.165Z,10.44
2018-12-02T07:12:57.152Z,10.46
2018-12-02T07:13:57.094Z,10.56
2018-12-02T07:14:57.055Z,10.49
2018-12-02T07:15:57.022Z,10.49
2018-12-02T07:16:56.993Z,10.57
2018-12-02T07:17:57.091Z,10.56
2018-12-02T07:18:56.948Z,10.57
2018-12-02T07:19:57.372Z,10.56
2018-12-02T07:20:56.864Z,10.56
2018-12-02T07:21:56.826Z,10.60
2018-12-02T07:22:56.833Z,10.53
2018-12-02T07:23:56.738Z,10.56
2018-12-02T07:24:56.709Z,10.54
2018-12-02T07:25:56.690Z,10.48
2018-12-02T07:26:56.641Z,10.57
2018-12-02T07:27:56.636Z,10.56
2018-12-02T07:28:56.570Z,10.64
2018-12-02T07:29:56.535Z,10.59
2018-12-02T07:30:56.498Z,10.60
2018-12-02T07:31:56.465Z,10.59
2018-12-02T07:32:56.429Z,10.56
2018-12-02T07:33:56.393Z,10.61
2018-12-02T07:34:56.367Z,10.56
2018-12-02T07:35:56.331Z,10.56
2018-12-02T07:36:56.281Z,10.61
2018-12-02T07:37:56.273Z,10.63
2018-12-02T07:38:56.221Z,10.61
2018-12-02T07:39:56.183Z,10.61
2018-12-02T07:40:56.153Z,10.61
2018-12-02T07:41:56.126Z,10.61
2018-12-02T07:42:56.613Z,10.71
2018-12-02T07:43:57.617Z,10.64
2018-12-02T07:44:56.008Z,10.69
2018-12-02T07:45:56.357Z,10.71
2018-12-02T07:46:55.941Z,10.68
2018-12-02T07:47:55.906Z,10.72
2018-12-02T07:48:55.873Z,10.69
2018-12-02T07:49:55.858Z,10.71
2018-12-02T07:50:55.802Z,10.71
2018-12-02T07:51:55.765Z,10.76
2018-12-02T07:52:56.440Z,10.69
2018-12-02T07:53:55.697Z,10.74
2018-12-02T07:54:55.662Z,10.82
2018-12-02T07:55:55.631Z,10.81
2018-12-02T07:56:55.598Z,10.86
2018-12-02T07:57:55.559Z,10.74
2018-12-02T07:58:55.523Z,10.84
2018-12-02T07:59:55.486Z,10.79
2018-12-02T08:00:55.454Z,10.84
2018-12-02T08:01:55.417Z,10.93
2018-12-02T08:02:55.387Z,10.86
2018-12-02T08:03:55.355Z,10.92
2018-12-02T08:04:55.314Z,10.87
2018-12-02T08:05:55.274Z,10.96
2018-12-02T08:06:55.246Z,10.87
2018-12-02T08:07:55.229Z,10.92
2018-12-02T08:08:55.180Z,11.02
2018-12-02T08:09:55.135Z,10.97
2018-12-02T08:10:55.127Z,10.96
2018-12-02T08:11:55.098Z,11.05
2018-12-02T08:12:55.044Z,11.05
2018-12-02T08:13:55.038Z,11.12
2018-12-02T08:14:55.010Z,11.08
2018-12-02T08:15:54.991Z,11.08
2018-12-02T08:16:54.935Z,11.18
2018-12-02T08:17:54.993Z,11.14
2018-12-02T08:18:54.845Z,11.25
2018-12-02T08:19:55.086Z,11.25
2018-12-02T08:20:54.767Z,11.23
2018-12-02T08:21:54.755Z,11.18
2018-12-02T08:22:54.690Z,11.22
2018-12-02T08:23:54.677Z,11.23
2018-12-02T08:24:54.629Z,11.29
2018-12-02T08:25:54.593Z,11.27
2018-12-02T08:26:54.558Z,11.36
2018-12-02T08:27:54.539Z,11.29
2018-12-02T08:28:54.489Z,11.27
2018-12-02T08:29:54.500Z,11.30
2018-12-02T08:30:54.415Z,11.43
2018-12-02T08:31:54.394Z,11.40
2018-12-02T08:32:54.352Z,11.37
2018-12-02T08:33:54.418Z,11.33
2018-12-02T08:34:54.464Z,11.41
2018-12-02T08:35:54.254Z,11.43
2018-12-02T08:36:54.241Z,11.40
2018-12-02T08:37:54.197Z,11.40
2018-12-02T08:38:54.147Z,11.41
2018-12-02T08:39:54.112Z,11.33
2018-12-02T08:40:54.084Z,11.36
2018-12-02T08:41:54.047Z,11.32
2018-12-02T08:42:54.011Z,11.35
2018-12-02T08:43:53.996Z,11.35
2018-12-02T08:44:53.945Z,11.40
2018-12-02T08:45:53.912Z,11.40
2018-12-02T08:46:53.878Z,11.48
2018-12-02T08:47:53.844Z,11.43
2018-12-02T08:48:53.809Z,11.50
2018-12-02T08:49:53.774Z,11.44
2018-12-02T08:50:53.741Z,11.45
2018-12-02T08:51:53.712Z,11.48
2018-12-02T08:52:53.679Z,11.52
2018-12-02T08:53:53.645Z,11.54
2018-12-02T08:54:53.604Z,11.50
2018-12-02T08:55:53.521Z,11.57
2018-12-02T08:56:53.540Z,11.52
2018-12-02T08:57:53.506Z,11.60
2018-12-02T08:58:53.470Z,11.59
2018-12-02T08:59:53.459Z,11.63
2018-12-02T09:00:53.403Z,11.59
2018-12-02T09:01:53.315Z,11.57
2018-12-02T09:02:53.281Z,11.59
2018-12-02T09:03:53.303Z,11.65
2018-12-02T09:04:53.217Z,11.70
2018-12-02T09:05:53.180Z,11.69
2018-12-02T09:06:53.206Z,11.80
2018-12-02T09:07:53.162Z,11.75
2018-12-02T09:08:53.135Z,11.81
2018-12-02T09:09:59.300Z,11.75
2018-12-02T09:10:53.125Z,11.77
2018-12-02T09:11:52.979Z,11.87
2018-12-02T09:12:52.945Z,11.81
2018-12-02T09:13:52.967Z,11.84
2018-12-02T09:14:52.878Z,11.83
2018-12-02T09:15:52.899Z,11.84
2018-12-02T09:16:52.813Z,11.84
2018-12-02T09:17:52.779Z,11.97
2018-12-02T09:18:53.302Z,11.99
2018-12-02T09:19:52.733Z,11.97
2018-12-02T09:20:52.732Z,12.00
2018-12-02T09:21:52.646Z,12.04
2018-12-02T09:22:52.614Z,12.00
2018-12-02T09:23:52.578Z,11.99
2018-12-02T09:24:52.542Z,12.03
2018-12-02T09:25:52.514Z,12.12
2018-12-02T09:26:52.533Z,12.06
2018-12-02T09:27:52.501Z,12.18
2018-12-02T09:28:52.410Z,12.13
2018-12-02T09:29:52.376Z,12.09
2018-12-02T09:30:52.349Z,12.18
2018-12-02T09:31:52.311Z,12.18
2018-12-02T09:32:52.325Z,12.27
2018-12-02T09:33:52.246Z,12.20
2018-12-02T09:34:52.211Z,12.18
2018-12-02T09:35:52.178Z,12.18
2018-12-02T09:36:57.842Z,12.18
2018-12-02T09:37:52.111Z,12.21
2018-12-02T09:38:52.077Z,12.27
2018-12-02T09:39:52.046Z,12.31
2018-12-02T09:40:52.012Z,12.27
2018-12-02T09:41:51.979Z,12.39
2018-12-02T09:42:51.946Z,12.39
2018-12-02T09:43:51.933Z,12.35
2018-12-02T09:44:52.179Z,12.42
2018-12-02T09:45:51.843Z,12.55
2018-12-02T09:46:51.815Z,12.61
2018-12-02T09:47:51.781Z,12.79
2018-12-02T09:48:51.744Z,12.76
2018-12-02T09:49:51.716Z,12.86
2018-12-02T09:50:52.175Z,13.05
2018-12-02T09:51:51.650Z,13.05
2018-12-02T09:52:51.616Z,13.08
2018-12-02T09:53:51.599Z,13.08
2018-12-02T09:54:51.550Z,13.13
2018-12-02T09:55:51.513Z,13.20
2018-12-02T09:56:51.484Z,13.18
2018-12-02T09:57:51.481Z,13.18
2018-12-02T09:58:51.418Z,13.08
2018-12-02T09:59:51.387Z,13.27
2018-12-02T10:00:51.544Z,13.20
2018-12-02T10:01:51.325Z,13.19
2018-12-02T10:02:51.539Z,13.13
2018-12-02T10:03:51.587Z,13.13
2018-12-02T10:04:51.224Z,13.25
2018-12-02T10:05:51.197Z,13.13
2018-12-02T10:06:51.153Z,13.13
2018-12-02T10:07:51.124Z,13.18
2018-12-02T10:08:51.110Z,13.27
2018-12-02T10:09:51.829Z,13.23
2018-12-02T10:10:51.022Z,13.22
2018-12-02T10:11:51.036Z,13.25
2018-12-02T10:12:50.958Z,13.15
2018-12-02T10:13:50.930Z,13.30
2018-12-02T10:14:50.892Z,13.23
2018-12-02T10:15:50.872Z,13.27
2018-12-02T10:16:50.831Z,13.25
2018-12-02T10:17:50.805Z,13.31
2018-12-02T10:18:50.779Z,13.38
2018-12-02T10:19:50.726Z,13.46
2018-12-02T10:20:50.701Z,13.46
2018-12-02T10:21:50.677Z,13.53
2018-12-02T10:22:50.634Z,13.60
2018-12-02T10:23:50.602Z,13.54
2018-12-02T10:24:50.630Z,13.56
2018-12-02T10:25:50.532Z,13.68
2018-12-02T10:26:50.506Z,13.67
2018-12-02T10:27:50.468Z,13.68
2018-12-02T10:28:50.461Z,13.68
2018-12-02T10:29:50.408Z,13.67
2018-12-02T10:30:50.394Z,13.70
2018-12-02T10:31:50.341Z,13.81
2018-12-02T10:32:50.307Z,13.75
2018-12-02T10:33:50.302Z,13.77
2018-12-02T10:34:50.245Z,13.85
2018-12-02T10:35:50.213Z,13.87
2018-12-02T10:36:50.179Z,13.87
2018-12-02T10:37:50.146Z,13.87
2018-12-02T10:38:50.117Z,13.86
2018-12-02T10:39:50.080Z,13.99
2018-12-02T10:40:50.060Z,14.04
2018-12-02T10:41:50.026Z,14.11
2018-12-02T10:42:50.807Z,14.07
2018-12-02T10:43:49.951Z,14.17
2018-12-02T10:44:49.922Z,14.17
2018-12-02T10:45:49.901Z,14.17
2018-12-02T10:46:50.119Z,14.18
2018-12-02T10:47:49.827Z,14.18
2018-12-02T10:48:49.799Z,14.25
2018-12-02T10:49:49.831Z,14.23
2018-12-02T10:50:49.732Z,14.32
2018-12-02T10:51:49.703Z,14.37
2018-12-02T10:52:49.667Z,14.33
2018-12-02T10:53:49.635Z,14.50
2018-12-02T10:54:49.601Z,14.35
2018-12-02T10:55:49.573Z,14.37
2018-12-02T10:56:49.542Z,14.36
2018-12-02T10:57:49.507Z,14.48
2018-12-02T10:58:49.480Z,14.33
2018-12-02T10:59:49.442Z,14.35
2018-12-02T11:00:49.414Z,14.44
2018-12-02T11:01:49.383Z,14.32
2018-12-02T11:02:49.358Z,14.41
2018-12-02T11:03:49.315Z,14.40
2018-12-02T11:04:49.294Z,14.51
2018-12-02T11:05:49.330Z,14.96
2018-12-02T11:06:49.273Z,15.15
2018-12-02T11:07:49.248Z,15.36
2018-12-02T11:08:49.215Z,15.54
2018-12-02T11:09:49.192Z,15.75
2018-12-02T11:10:49.163Z,16.10
2018-12-02T11:11:49.130Z,16.29
2018-12-02T11:12:49.088Z,16.42
2018-12-02T11:13:49.081Z,16.69
2018-12-02T11:14:49.037Z,17.19
2018-12-02T11:15:49.018Z,17.36
2018-12-02T11:16:48.993Z,17.09
2018-12-02T11:17:48.955Z,16.76
2018-12-02T11:18:49.113Z,16.64
2018-12-02T11:19:48.894Z,16.38
2018-12-02T11:20:48.857Z,16.26
2018-12-02T11:21:48.836Z,15.92
2018-12-02T11:22:48.804Z,15.90
2018-12-02T11:23:49.077Z,15.68
2018-12-02T11:24:48.759Z,15.72
2018-12-02T11:25:48.713Z,15.70
2018-12-02T11:26:48.716Z,15.62
2018-12-02T11:27:48.677Z,15.61
2018-12-02T11:28:48.628Z,15.49
2018-12-02T11:29:48.619Z,15.36
2018-12-02T11:30:48.584Z,15.37
2018-12-02T11:31:49.149Z,15.25
2018-12-02T11:32:48.504Z,15.28
2018-12-02T11:33:48.474Z,15.18
2018-12-02T11:34:49.150Z,15.19
2018-12-02T11:35:48.411Z,15.10
2018-12-02T11:36:48.380Z,15.07
2018-12-02T11:37:48.996Z,15.11
2018-12-02T11:38:48.315Z,15.06
2018-12-02T11:39:48.289Z,15.04
2018-12-02T11:40:48.249Z,15.06
2018-12-02T11:41:48.223Z,15.14
2018-12-02T11:42:48.193Z,15.00
2018-12-02T11:43:48.155Z,15.06
2018-12-02T11:44:48.128Z,15.18
2018-12-02T11:45:48.107Z,15.06
2018-12-02T11:46:48.067Z,15.17
2018-12-02T11:47:48.032Z,15.14
2018-12-02T11:48:48.005Z,15.14
2018-12-02T11:49:47.965Z,15.06
2018-12-02T11:50:47.957Z,15.02
2018-12-02T11:51:47.907Z,15.11
2018-12-02T11:52:47.869Z,15.11
2018-12-02T11:53:47.843Z,15.04
2018-12-02T11:54:47.810Z,14.96
2018-12-02T11:55:47.775Z,15.06
2018-12-02T11:56:47.750Z,15.03
2018-12-02T11:57:47.726Z,14.91
2018-12-02T11:58:47.715Z,14.99
2018-12-02T11:59:47.654Z,14.97
2018-12-02T12:00:47.706Z,14.96
2018-12-02T12:01:47.587Z,14.92
2018-12-02T12:02:47.557Z,14.94
2018-12-02T12:03:47.525Z,14.99
2018-12-02T12:04:47.489Z,15.02
2018-12-02T12:05:47.460Z,15.03
2018-12-02T12:06:47.443Z,15.06
2018-12-02T12:07:47.393Z,14.96
2018-12-02T12:08:47.363Z,15.02
2018-12-02T12:09:47.349Z,15.04
2018-12-02T12:10:47.300Z,15.04
2018-12-02T12:11:47.268Z,14.96
2018-12-02T12:12:47.233Z,15.04
2018-12-02T12:13:47.201Z,15.04
2018-12-02T12:14:47.430Z,15.09
2018-12-02T12:15:47.157Z,15.09
2018-12-02T12:16:47.107Z,15.17
2018-12-02T12:17:47.076Z,15.14
2018-12-02T12:18:47.070Z,15.11
2018-12-02T12:19:47.018Z,15.10
2018-12-02T12:20:46.997Z,15.14
2018-12-02T12:21:46.951Z,15.11
2018-12-02T12:22:46.917Z,15.17
2018-12-02T12:23:46.877Z,15.15
2018-12-02T12:24:46.853Z,15.10
2018-12-02T12:25:46.838Z,15.18
2018-12-02T12:26:46.858Z,15.18
2018-12-02T12:27:46.759Z,15.19
2018-12-02T12:28:46.734Z,15.17
2018-12-02T12:29:46.692Z,15.09
2018-12-02T12:30:46.666Z,15.18
2018-12-02T12:31:46.627Z,15.21
2018-12-02T12:32:46.595Z,15.07
2018-12-02T12:33:46.583Z,15.21
2018-12-02T12:34:46.536Z,15.14
2018-12-02T12:35:46.501Z,15.27
2018-12-02T12:36:46.469Z,15.31
2018-12-02T12:37:46.443Z,15.33
2018-12-02T12:38:46.405Z,15.29
2018-12-02T12:39:46.369Z,15.29
2018-12-02T12:40:46.343Z,15.31
2018-12-02T12:41:46.311Z,15.27
2018-12-02T12:42:46.280Z,15.28
2018-12-02T12:43:46.251Z,15.31
2018-12-02T12:44:46.215Z,15.27
2018-12-02T12:45:46.186Z,15.19
2018-12-02T12:46:46.154Z,15.19
2018-12-02T12:47:46.120Z,15.27
2018-12-02T12:48:46.090Z,15.24
2018-12-02T12:49:46.085Z,15.27
2018-12-02T12:50:46.030Z,15.29
2018-12-02T12:51:45.995Z,15.33
2018-12-02T12:52:45.979Z,15.35
2018-12-02T12:53:45.932Z,15.37
2018-12-02T12:54:45.897Z,15.40
2018-12-02T12:55:50.673Z,15.37
2018-12-02T12:56:45.836Z,15.36
2018-12-02T12:57:46.340Z,15.37
2018-12-02T12:58:45.784Z,15.36